MSC Fantasia — 3ETR7 — position and weather

sailwx.info

Track history (hours):
 
Tides and Currents Weather Stations Pressure Air Temp Water Temp Dewpoint Dewpoint Depression Visibility Wind Speed Wind Dir Waves Ship Positions

MSC Fantasia

Last reported at 2017-Oct-16 20:07 UTC. Time now 2017-Oct-18 09:43 UTC.
Position N 29°47' W 016°19'.

Length 333 m; draft 8.7 m.

Type: Ship. MMSI: 370648000.

Date/timePositionNaut miles runAvg speedWind from/ knotsBaromVisibWave heightAir tempDewpointWater temp
2017-Oct-16 20:07N 29°47' W 016°19'216.7
2017-Oct-16 20:00N 29°45' W 016°19'916.7
2017-Oct-16 19:30N 29°36' W 016°17'1016.9
2017-Oct-16 18:55N 29°27' W 016°15'717.2
2017-Oct-16 18:30N 29°20' W 016°14'917.3
2017-Oct-16 18:00N 29°11' W 016°12'917.5
2017-Oct-16 17:30N 29°02' W 016°10'917.7
2017-Oct-16 17:00N 28°54' W 016°09'917.7
2017-Oct-16 16:30N 28°45' W 016°07'917.4
2017-Oct-16 16:00N 28°36' W 016°05'816.3
2017-Oct-16 15:30N 28°29' W 016°10'4 8.6
2017-Oct-16 15:00N 28°28' W 016°14'0 0.0
2017-Oct-16 14:23N 28°28' W 016°14'0 0.0
2017-Oct-16 13:29N 28°28' W 016°14'0 0.0
2017-Oct-16 12:58N 28°28' W 016°14'0 0.0
2017-Oct-16 12:25N 28°28' W 016°14'0 0.0
2017-Oct-16 11:58N 28°28' W 016°14'0 0.0
2017-Oct-16 11:25N 28°28' W 016°14'0 0.0
2017-Oct-16 11:00N 28°28' W 016°14'0 0.0
2017-Oct-16 10:24N 28°28' W 016°14'0 0.0
2017-Oct-16 09:54N 28°28' W 016°14'0 0.0
2017-Oct-16 09:18N 28°28' W 016°14'0 0.0
2017-Oct-16 09:00N 28°28' W 016°14'0 0.0
2017-Oct-16 08:29N 28°28' W 016°14'0 0.0
2017-Oct-16 07:56N 28°28' W 016°14'0 0.0
2017-Oct-16 07:30N 28°28' W 016°14'1 2.1
2017-Oct-16 07:00N 28°29' W 016°13'611.4
2017-Oct-16 06:30N 28°29' W 016°07'613.0
2017-Oct-16 06:00N 28°33' W 016°01'714.1
2017-Oct-16 05:30N 28°37' W 015°55'714.4
2017-Oct-16 05:00N 28°41' W 015°48'714.1
2017-Oct-16 04:30N 28°46' W 015°42'714.4
2017-Oct-16 04:00N 28°50' W 015°36'714.6
2017-Oct-16 03:31N 28°55' W 015°29'714.4
2017-Oct-16 03:00N 28°59' W 015°23'714.3
2017-Oct-16 02:30N 29°04' W 015°16'714.4
2017-Oct-16 02:00N 29°08' W 015°10'714.4
2017-Oct-16 01:30N 29°13' W 015°03'714.8
2017-Oct-16 01:00N 29°17' W 014°57'815.7
2017-Oct-16 00:30N 29°22' W 014°50'815.4
2017-Oct-16 00:00N 29°27' W 014°43'815.2
2017-Oct-15 23:30N 29°32' W 014°36'815.0
2017-Oct-15 23:00N 29°36' W 014°29'814.9
2017-Oct-15 22:30N 29°41' W 014°23'714.9
2017-Oct-15 22:00N 29°46' W 014°16'714.8
2017-Oct-15 21:30N 29°51' W 014°09'714.9
2017-Oct-15 21:00N 29°55' W 014°02'714.7
2017-Oct-15 20:30N 29°60' W 013°56'714.6
2017-Oct-15 20:00N 30°04' W 013°49'814.8
2017-Oct-15 19:26N 30°09' W 013°42'614.8
2017-Oct-15 19:00N 30°13' W 013°36'915.0
2017-Oct-15 18:24N 30°19' W 013°28'614.9
2017-Oct-15 18:00N 30°23' W 013°22'714.6
2017-Oct-15 17:30N 30°27' W 013°16'714.7
2017-Oct-15 17:00N 30°32' W 013°09'814.9
2017-Oct-15 16:30N 30°37' W 013°02'1814.6
2017-Oct-15 15:17N 30°48' W 012°46'414.7
2017-Oct-15 15:00N 30°50' W 012°42'18217.9
2017-Oct-15 04:50N 32°44' W 009°55'1418.6
2017-Oct-15 04:05N 32°53' W 009°42'118.9
2017-Oct-15 04:00N 32°53' W 009°40'1019.0
2017-Oct-15 03:28N 33°00' W 009°31'919.1
2017-Oct-15 03:00N 33°05' W 009°22'5618.7
2017-Oct-15 00:00N 33°33' W 008°25'139 5.5
2017-Oct-13 22:32N 35°20' W 006°35'120.1
2017-Oct-13 22:30N 35°20' W 006°35'1020.0
2017-Oct-13 22:00N 35°29' W 006°29'2819.6
2017-Oct-13 20:35N 35°55' W 006°17'218.7
2017-Oct-13 20:30N 35°56' W 006°15'3020.0
2017-Oct-13 19:00N 35°58' W 005°39'919.0
2017-Oct-13 18:30N 35°59' W 005°27'917.8
2017-Oct-13 18:00N 36°01' W 005°16'20219.0
2017-Oct-13 07:22N 37°04' W 001°17'921.9
2017-Oct-13 06:58N 37°10' W 001°09'1021.7
2017-Oct-13 06:30N 37°17' W 000°59'1121.5
2017-Oct-13 06:00N 37°24' W 000°49'1021.5
2017-Oct-13 05:30N 37°31' W 000°39'1121.5
2017-Oct-13 05:00N 37°39' W 000°30'1121.8
2017-Oct-13 04:29N 37°48' W 000°22'1221.7
2017-Oct-13 03:57N 37°58' W 000°14'1021.9
2017-Oct-13 03:30N 38°06' W 000°08'1121.8
2017-Oct-13 03:00N 38°16' W 000°01'1121.6
2017-Oct-13 02:31N 38°24' E 000°08'1121.4
2017-Oct-13 02:01N 38°33' E 000°16'1321.1
2017-Oct-13 01:24N 38°44' E 000°24'920.8
2017-Oct-13 00:57N 38°52' E 000°30'13421.0
2017-Oct-12 18:34N 40°50' E 001°52'220.8
2017-Oct-12 18:30N 40°52' E 001°53'1020.8
2017-Oct-12 18:01N 41°01' E 001°60'1020.9
2017-Oct-12 17:31N 41°10' E 002°06'9 0.8
2017-Oct-12 05:42N 41°18' E 002°10'211.0
2017-Oct-12 05:29N 41°17' E 002°13'612.6
2017-Oct-12 04:59N 41°20' E 002°21'16513.8
2017-Oct-11 17:03N 43°10' E 005°07'114.7
2017-Oct-11 16:57N 43°12' E 005°08'82 4.4
2017-Oct-10 22:19N 43°10' E 006°59'514.8
2017-Oct-10 22:00N 43°12' E 007°05'714.9
2017-Oct-10 21:30N 43°16' E 007°14'714.9
2017-Oct-10 21:00N 43°20' E 007°22'714.9
2017-Oct-10 20:30N 43°24' E 007°31'3917.8
2017-Oct-10 18:17N 43°44' E 008°18'519.3
2017-Oct-10 18:00N 43°48' E 008°23'1019.3
2017-Oct-10 17:30N 43°55' E 008°31'1019.3
2017-Oct-10 17:00N 44°03' E 008°40'1019.2
2017-Oct-10 16:30N 44°10' E 008°49'1019.1
2017-Oct-10 16:00N 44°17' E 008°57'612.8
2017-Oct-10 15:30N 44°24' E 008°55'1 2.1
2017-Oct-10 15:01N 44°25' E 008°55'0 0.0
2017-Oct-10 14:00N 44°25' E 008°55'0 0.0
2017-Oct-10 13:30N 44°25' E 008°55'0 0.0
2017-Oct-10 13:00N 44°25' E 008°55'0 0.0
2017-Oct-10 12:30N 44°25' E 008°55'0 0.0
2017-Oct-10 12:00N 44°25' E 008°55'0 0.0
2017-Oct-10 11:31N 44°25' E 008°55'0 0.0
2017-Oct-10 11:00N 44°25' E 008°55'0 0.0
2017-Oct-10 10:31N 44°25' E 008°55'0 0.0
2017-Oct-10 10:00N 44°25' E 008°55'0 0.0
2017-Oct-10 09:31N 44°25' E 008°55'0 0.0
2017-Oct-10 09:00N 44°25' E 008°55'0 0.0
2017-Oct-10 08:31N 44°25' E 008°55'0 0.0
2017-Oct-10 08:01N 44°25' E 008°55'0 0.0
2017-Oct-10 07:31N 44°25' E 008°55'0 0.0
2017-Oct-10 07:01N 44°25' E 008°55'0 0.0
2017-Oct-10 06:30N 44°25' E 008°55'0 0.0
2017-Oct-10 06:00N 44°25' E 008°55'0 0.0
2017-Oct-10 05:30N 44°25' E 008°55'1 1.2
2017-Oct-10 05:01N 44°24' E 008°55'4 8.2
2017-Oct-10 04:30N 44°21' E 008°59'816.6
2017-Oct-10 04:00N 44°13' E 009°03'1020.1
2017-Oct-10 03:30N 44°04' E 009°07'1020.2
2017-Oct-10 03:00N 43°54' E 009°12'1020.5
2017-Oct-10 02:30N 43°45' E 009°17'1020.5
2017-Oct-10 02:00N 43°35' E 009°22'1020.7
2017-Oct-10 01:30N 43°25' E 009°27'1020.4
2017-Oct-10 01:00N 43°16' E 009°31'1020.0
2017-Oct-10 00:30N 43°06' E 009°36'2619.6
2017-Oct-09 23:10N 42°41' E 009°48'319.2
2017-Oct-09 23:00N 42°38' E 009°49'3117.4
2017-Oct-09 21:14N 42°14' E 010°14'619.8
2017-Oct-09 20:57N 42°13' E 010°22'31310.7
2017-Oct-08 15:49N 38°37' E 015°19'721.0
2017-Oct-08 15:28N 38°32' E 015°26'1020.8
2017-Oct-08 15:00N 38°25' E 015°34'1019.8
2017-Oct-08 14:31N 38°18' E 015°43'917.9
2017-Oct-08 14:00N 38°11' E 015°37'917.9
2017-Oct-08 13:30N 38°02' E 015°36'1020.0
2017-Oct-08 13:00N 37°53' E 015°42'1122.4
2017-Oct-08 12:30N 37°50' E 015°56'36718.1
2017-Oct-07 16:15N 37°20' E 023°37'521.8
2017-Oct-07 16:00N 37°25' E 023°39'1121.5
2017-Oct-07 15:30N 37°36' E 023°41'1020.4
2017-Oct-07 15:00N 37°46' E 023°39'1019.6
2017-Oct-07 14:30N 37°55' E 023°36'2 3.1
2017-Oct-07 13:59N 37°56' E 023°37'0 0.0
2017-Oct-07 13:29N 37°56' E 023°37'0 0.0
2017-Oct-07 12:59N 37°56' E 023°37'0 0.0
2017-Oct-07 12:29N 37°56' E 023°37'0 0.0
2017-Oct-07 11:59N 37°56' E 023°37'0 0.0
2017-Oct-07 11:28N 37°56' E 023°37'0 0.0
2017-Oct-07 10:58N 37°56' E 023°37'0 0.0
2017-Oct-07 10:28N 37°56' E 023°37'0 0.0
2017-Oct-07 09:58N 37°56' E 023°37'0 0.0
2017-Oct-07 09:30N 37°56' E 023°37'0 0.0
2017-Oct-07 09:00N 37°56' E 023°37'0 0.0
2017-Oct-07 08:30N 37°56' E 023°37'0 0.0
2017-Oct-07 08:00N 37°56' E 023°37'0 0.0
2017-Oct-07 07:30N 37°56' E 023°37'0 0.0
2017-Oct-07 07:00N 37°56' E 023°37'0 0.0
2017-Oct-07 06:30N 37°56' E 023°37'0 0.0
2017-Oct-07 06:00N 37°56' E 023°37'0 0.0
2017-Oct-07 05:30N 37°56' E 023°37'0 0.0
2017-Oct-07 04:59N 37°56' E 023°37'0 0.0
2017-Oct-07 04:29N 37°56' E 023°37'0 0.0
2017-Oct-07 04:00N 37°56' E 023°37'1 1.9
2017-Oct-07 03:30N 37°56' E 023°37'3 6.3
2017-Oct-07 03:00N 37°53' E 023°38'510.5
2017-Oct-07 02:30N 37°48' E 023°41'612.9
2017-Oct-07 02:00N 37°42' E 023°44'713.1
2017-Oct-07 01:30N 37°36' E 023°47'1213.8
2017-Oct-07 00:36N 37°24' E 023°53'2714.1
2017-Oct-06 22:40N 36°59' E 024°04'2514.8
2017-Oct-06 20:58N 36°35' E 024°15'914.7
2017-Oct-06 20:23N 36°28' E 024°21'  
Track history (hours):
 
Tides and Currents Weather Stations Pressure Air Temp Water Temp Dewpoint Dewpoint Depression Visibility Wind Speed Wind Dir Waves Ship Positions

MSC Fantasia

Last reported at 2017-Oct-16 20:07 UTC. Time now 2017-Oct-18 09:43 UTC.
Position N 29°47' W 016°19'.

Length 333 m; draft 8.7 m.

Type: Ship. MMSI: 370648000.

Date/timePositionNaut miles runAvg speedWind from/ knotsBaromVisibWave heightAir tempDewpointWater temp
2017-Oct-16 20:07N 29°47' W 016°19'216.7
2017-Oct-16 20:00N 29°45' W 016°19'916.7
2017-Oct-16 19:30N 29°36' W 016°17'1016.9
2017-Oct-16 18:55N 29°27' W 016°15'717.2
2017-Oct-16 18:30N 29°20' W 016°14'917.3
2017-Oct-16 18:00N 29°11' W 016°12'917.5
2017-Oct-16 17:30N 29°02' W 016°10'917.7
2017-Oct-16 17:00N 28°54' W 016°09'917.7
2017-Oct-16 16:30N 28°45' W 016°07'917.4
2017-Oct-16 16:00N 28°36' W 016°05'816.3
2017-Oct-16 15:30N 28°29' W 016°10'4 8.6
2017-Oct-16 15:00N 28°28' W 016°14'0 0.0
2017-Oct-16 14:23N 28°28' W 016°14'0 0.0
2017-Oct-16 13:29N 28°28' W 016°14'0 0.0
2017-Oct-16 12:58N 28°28' W 016°14'0 0.0
2017-Oct-16 12:25N 28°28' W 016°14'0 0.0
2017-Oct-16 11:58N 28°28' W 016°14'0 0.0
2017-Oct-16 11:25N 28°28' W 016°14'0 0.0
2017-Oct-16 11:00N 28°28' W 016°14'0 0.0
2017-Oct-16 10:24N 28°28' W 016°14'0 0.0
2017-Oct-16 09:54N 28°28' W 016°14'0 0.0
2017-Oct-16 09:18N 28°28' W 016°14'0 0.0
2017-Oct-16 09:00N 28°28' W 016°14'0 0.0
2017-Oct-16 08:29N 28°28' W 016°14'0 0.0
2017-Oct-16 07:56N 28°28' W 016°14'0 0.0
2017-Oct-16 07:30N 28°28' W 016°14'1 2.1
2017-Oct-16 07:00N 28°29' W 016°13'611.4
2017-Oct-16 06:30N 28°29' W 016°07'613.0
2017-Oct-16 06:00N 28°33' W 016°01'714.1
2017-Oct-16 05:30N 28°37' W 015°55'714.4
2017-Oct-16 05:00N 28°41' W 015°48'714.1
2017-Oct-16 04:30N 28°46' W 015°42'714.4
2017-Oct-16 04:00N 28°50' W 015°36'714.6
2017-Oct-16 03:31N 28°55' W 015°29'714.4
2017-Oct-16 03:00N 28°59' W 015°23'714.3
2017-Oct-16 02:30N 29°04' W 015°16'714.4
2017-Oct-16 02:00N 29°08' W 015°10'714.4
2017-Oct-16 01:30N 29°13' W 015°03'714.8
2017-Oct-16 01:00N 29°17' W 014°57'815.7
2017-Oct-16 00:30N 29°22' W 014°50'815.4
2017-Oct-16 00:00N 29°27' W 014°43'815.2
2017-Oct-15 23:30N 29°32' W 014°36'815.0
2017-Oct-15 23:00N 29°36' W 014°29'814.9
2017-Oct-15 22:30N 29°41' W 014°23'714.9
2017-Oct-15 22:00N 29°46' W 014°16'714.8
2017-Oct-15 21:30N 29°51' W 014°09'714.9
2017-Oct-15 21:00N 29°55' W 014°02'714.7
2017-Oct-15 20:30N 29°60' W 013°56'714.6
2017-Oct-15 20:00N 30°04' W 013°49'814.8
2017-Oct-15 19:26N 30°09' W 013°42'614.8
2017-Oct-15 19:00N 30°13' W 013°36'915.0
2017-Oct-15 18:24N 30°19' W 013°28'614.9
2017-Oct-15 18:00N 30°23' W 013°22'714.6
2017-Oct-15 17:30N 30°27' W 013°16'714.7
2017-Oct-15 17:00N 30°32' W 013°09'814.9
2017-Oct-15 16:30N 30°37' W 013°02'1814.6
2017-Oct-15 15:17N 30°48' W 012°46'414.7
2017-Oct-15 15:00N 30°50' W 012°42'18217.9
2017-Oct-15 04:50N 32°44' W 009°55'1418.6
2017-Oct-15 04:05N 32°53' W 009°42'118.9
2017-Oct-15 04:00N 32°53' W 009°40'1019.0
2017-Oct-15 03:28N 33°00' W 009°31'919.1
2017-Oct-15 03:00N 33°05' W 009°22'5618.7
2017-Oct-15 00:00N 33°33' W 008°25'139 5.5
2017-Oct-13 22:32N 35°20' W 006°35'120.1
2017-Oct-13 22:30N 35°20' W 006°35'1020.0
2017-Oct-13 22:00N 35°29' W 006°29'2819.6
2017-Oct-13 20:35N 35°55' W 006°17'218.7
2017-Oct-13 20:30N 35°56' W 006°15'3020.0
2017-Oct-13 19:00N 35°58' W 005°39'919.0
2017-Oct-13 18:30N 35°59' W 005°27'917.8
2017-Oct-13 18:00N 36°01' W 005°16'20219.0
2017-Oct-13 07:22N 37°04' W 001°17'921.9
2017-Oct-13 06:58N 37°10' W 001°09'1021.7
2017-Oct-13 06:30N 37°17' W 000°59'1121.5
2017-Oct-13 06:00N 37°24' W 000°49'1021.5
2017-Oct-13 05:30N 37°31' W 000°39'1121.5
2017-Oct-13 05:00N 37°39' W 000°30'1121.8
2017-Oct-13 04:29N 37°48' W 000°22'1221.7
2017-Oct-13 03:57N 37°58' W 000°14'1021.9
2017-Oct-13 03:30N 38°06' W 000°08'1121.8
2017-Oct-13 03:00N 38°16' W 000°01'1121.6
2017-Oct-13 02:31N 38°24' E 000°08'1121.4
2017-Oct-13 02:01N 38°33' E 000°16'1321.1
2017-Oct-13 01:24N 38°44' E 000°24'920.8
2017-Oct-13 00:57N 38°52' E 000°30'13421.0
2017-Oct-12 18:34N 40°50' E 001°52'220.8
2017-Oct-12 18:30N 40°52' E 001°53'1020.8
2017-Oct-12 18:01N 41°01' E 001°60'1020.9
2017-Oct-12 17:31N 41°10' E 002°06'9 0.8
2017-Oct-12 05:42N 41°18' E 002°10'211.0
2017-Oct-12 05:29N 41°17' E 002°13'612.6
2017-Oct-12 04:59N 41°20' E 002°21'16513.8
2017-Oct-11 17:03N 43°10' E 005°07'114.7
2017-Oct-11 16:57N 43°12' E 005°08'82 4.4
2017-Oct-10 22:19N 43°10' E 006°59'514.8
2017-Oct-10 22:00N 43°12' E 007°05'714.9
2017-Oct-10 21:30N 43°16' E 007°14'714.9
2017-Oct-10 21:00N 43°20' E 007°22'714.9
2017-Oct-10 20:30N 43°24' E 007°31'3917.8
2017-Oct-10 18:17N 43°44' E 008°18'519.3
2017-Oct-10 18:00N 43°48' E 008°23'1019.3
2017-Oct-10 17:30N 43°55' E 008°31'1019.3
2017-Oct-10 17:00N 44°03' E 008°40'1019.2
2017-Oct-10 16:30N 44°10' E 008°49'1019.1
2017-Oct-10 16:00N 44°17' E 008°57'612.8
2017-Oct-10 15:30N 44°24' E 008°55'1 2.1
2017-Oct-10 15:01N 44°25' E 008°55'0 0.0
2017-Oct-10 14:00N 44°25' E 008°55'0 0.0
2017-Oct-10 13:30N 44°25' E 008°55'0 0.0
2017-Oct-10 13:00N 44°25' E 008°55'0 0.0
2017-Oct-10 12:30N 44°25' E 008°55'0 0.0
2017-Oct-10 12:00N 44°25' E 008°55'0 0.0
2017-Oct-10 11:31N 44°25' E 008°55'0 0.0
2017-Oct-10 11:00N 44°25' E 008°55'0 0.0
2017-Oct-10 10:31N 44°25' E 008°55'0 0.0
2017-Oct-10 10:00N 44°25' E 008°55'0 0.0
2017-Oct-10 09:31N 44°25' E 008°55'0 0.0
2017-Oct-10 09:00N 44°25' E 008°55'0 0.0
2017-Oct-10 08:31N 44°25' E 008°55'0 0.0
2017-Oct-10 08:01N 44°25' E 008°55'0 0.0
2017-Oct-10 07:31N 44°25' E 008°55'0 0.0
2017-Oct-10 07:01N 44°25' E 008°55'0 0.0
2017-Oct-10 06:30N 44°25' E 008°55'0 0.0
2017-Oct-10 06:00N 44°25' E 008°55'0 0.0
2017-Oct-10 05:30N 44°25' E 008°55'1 1.2
2017-Oct-10 05:01N 44°24' E 008°55'4 8.2
2017-Oct-10 04:30N 44°21' E 008°59'816.6
2017-Oct-10 04:00N 44°13' E 009°03'1020.1
2017-Oct-10 03:30N 44°04' E 009°07'1020.2
2017-Oct-10 03:00N 43°54' E 009°12'1020.5
2017-Oct-10 02:30N 43°45' E 009°17'1020.5
2017-Oct-10 02:00N 43°35' E 009°22'1020.7
2017-Oct-10 01:30N 43°25' E 009°27'1020.4
2017-Oct-10 01:00N 43°16' E 009°31'1020.0
2017-Oct-10 00:30N 43°06' E 009°36'2619.6
2017-Oct-09 23:10N 42°41' E 009°48'319.2
2017-Oct-09 23:00N 42°38' E 009°49'3117.4
2017-Oct-09 21:14N 42°14' E 010°14'619.8
2017-Oct-09 20:57N 42°13' E 010°22'31310.7
2017-Oct-08 15:49N 38°37' E 015°19'721.0
2017-Oct-08 15:28N 38°32' E 015°26'1020.8
2017-Oct-08 15:00N 38°25' E 015°34'1019.8
2017-Oct-08 14:31N 38°18' E 015°43'917.9
2017-Oct-08 14:00N 38°11' E 015°37'917.9
2017-Oct-08 13:30N 38°02' E 015°36'1020.0
2017-Oct-08 13:00N 37°53' E 015°42'1122.4
2017-Oct-08 12:30N 37°50' E 015°56'36718.1
2017-Oct-07 16:15N 37°20' E 023°37'521.8
2017-Oct-07 16:00N 37°25' E 023°39'1121.5
2017-Oct-07 15:30N 37°36' E 023°41'1020.4
2017-Oct-07 15:00N 37°46' E 023°39'1019.6
2017-Oct-07 14:30N 37°55' E 023°36'2 3.1
2017-Oct-07 13:59N 37°56' E 023°37'0 0.0
2017-Oct-07 13:29N 37°56' E 023°37'0 0.0
2017-Oct-07 12:59N 37°56' E 023°37'0 0.0
2017-Oct-07 12:29N 37°56' E 023°37'0 0.0
2017-Oct-07 11:59N 37°56' E 023°37'0 0.0
2017-Oct-07 11:28N 37°56' E 023°37'0 0.0
2017-Oct-07 10:58N 37°56' E 023°37'0 0.0
2017-Oct-07 10:28N 37°56' E 023°37'0 0.0
2017-Oct-07 09:58N 37°56' E 023°37'0 0.0
2017-Oct-07 09:30N 37°56' E 023°37'0 0.0
2017-Oct-07 09:00N 37°56' E 023°37'0 0.0
2017-Oct-07 08:30N 37°56' E 023°37'0 0.0
2017-Oct-07 08:00N 37°56' E 023°37'0 0.0
2017-Oct-07 07:30N 37°56' E 023°37'0 0.0
2017-Oct-07 07:00N 37°56' E 023°37'0 0.0
2017-Oct-07 06:30N 37°56' E 023°37'0 0.0
2017-Oct-07 06:00N 37°56' E 023°37'0 0.0
2017-Oct-07 05:30N 37°56' E 023°37'0 0.0
2017-Oct-07 04:59N 37°56' E 023°37'0 0.0
2017-Oct-07 04:29N 37°56' E 023°37'0 0.0
2017-Oct-07 04:00N 37°56' E 023°37'1 1.9
2017-Oct-07 03:30N 37°56' E 023°37'3 6.3
2017-Oct-07 03:00N 37°53' E 023°38'510.5
2017-Oct-07 02:30N 37°48' E 023°41'612.9
2017-Oct-07 02:00N 37°42' E 023°44'713.1
2017-Oct-07 01:30N 37°36' E 023°47'1213.8
2017-Oct-07 00:36N 37°24' E 023°53'2714.1
2017-Oct-06 22:40N 36°59' E 024°04'2514.8
2017-Oct-06 20:58N 36°35' E 024°15'914.7
2017-Oct-06 20:23N 36°28' E 024°21'  

Dump ship's entire track history